createdAt,value
2019-01-29T00:00:58.085Z,28.40
2019-01-29T00:03:25.180Z,28.40
2019-01-29T00:05:52.380Z,28.40
2019-01-29T00:08:19.536Z,28.40
2019-01-29T00:10:46.621Z,28.40
2019-01-29T00:13:13.685Z,28.40
2019-01-29T00:15:40.783Z,28.30
2019-01-29T00:18:07.897Z,28.40
2019-01-29T00:20:35.133Z,28.40
2019-01-29T00:23:02.226Z,28.40
2019-01-29T00:25:29.384Z,28.40
2019-01-29T00:27:56.440Z,28.30
2019-01-29T00:30:24.624Z,28.30
2019-01-29T00:32:51.944Z,28.30
2019-01-29T00:35:19.209Z,28.30
2019-01-29T00:37:46.271Z,28.30
2019-01-29T00:40:13.360Z,28.30
2019-01-29T00:42:40.451Z,28.30
2019-01-29T00:45:07.501Z,28.40
2019-01-29T00:47:34.656Z,28.30
2019-01-29T00:50:01.720Z,28.30
2019-01-29T00:52:28.815Z,28.30
2019-01-29T00:54:55.999Z,28.30
2019-01-29T00:57:23.260Z,28.30
2019-01-29T00:59:50.317Z,28.30
2019-01-29T01:02:17.397Z,28.30
2019-01-29T01:04:44.484Z,28.30
2019-01-29T01:07:11.542Z,28.20
2019-01-29T01:09:38.641Z,28.20
2019-01-29T01:12:05.708Z,28.30
2019-01-29T01:14:32.798Z,28.10
2019-01-29T01:16:59.846Z,28.20
2019-01-29T01:19:29.375Z,28.20
2019-01-29T01:21:55.701Z,28.20
2019-01-29T01:24:22.827Z,28.20
2019-01-29T01:26:49.882Z,28.20
2019-01-29T01:29:16.950Z,28.20
2019-01-29T01:31:44.044Z,28.20
2019-01-29T01:34:11.501Z,28.20
2019-01-29T01:36:38.631Z,28.20
2019-01-29T01:39:05.688Z,28.20
2019-01-29T01:41:32.782Z,28.20
2019-01-29T01:43:59.869Z,28.20
2019-01-29T01:46:26.955Z,28.20
2019-01-29T01:48:54.087Z,28.20
2019-01-29T01:51:21.152Z,28.20
2019-01-29T01:53:48.232Z,28.10
2019-01-29T01:56:15.320Z,28.10
2019-01-29T01:58:42.701Z,28.10
2019-01-29T02:01:09.866Z,28.20
2019-01-29T02:03:37.710Z,28.10
2019-01-29T02:06:04.760Z,28.10
2019-01-29T02:08:31.817Z,28.20
2019-01-29T02:10:58.900Z,28.10
2019-01-29T02:13:26.008Z,28.10
2019-01-29T02:15:53.060Z,28.10
2019-01-29T02:18:20.163Z,28.10
2019-01-29T02:20:47.347Z,28.10
2019-01-29T02:23:14.529Z,28.00
2019-01-29T02:25:41.694Z,28.50
2019-01-29T02:28:08.778Z,28.10
2019-01-29T02:30:35.842Z,28.00
2019-01-29T02:33:04.158Z,28.10
2019-01-29T02:35:31.380Z,28.10
2019-01-29T02:37:58.766Z,28.10
2019-01-29T02:40:25.859Z,28.10
2019-01-29T02:42:54.046Z,28.10
2019-01-29T02:45:21.238Z,28.00
2019-01-29T02:47:48.441Z,28.00
2019-01-29T02:50:15.682Z,28.10
2019-01-29T02:52:42.736Z,28.10
2019-01-29T02:55:09.799Z,28.00
2019-01-29T02:57:36.986Z,28.00
2019-01-29T03:00:04.052Z,28.00
2019-01-29T03:02:31.156Z,28.00
2019-01-29T03:04:58.215Z,28.00
2019-01-29T03:07:25.265Z,28.10
2019-01-29T03:09:52.428Z,28.00
2019-01-29T03:12:19.506Z,28.00
2019-01-29T03:14:46.594Z,28.00
2019-01-29T03:17:13.867Z,28.50
2019-01-29T03:19:40.974Z,28.00
2019-01-29T03:22:08.030Z,27.90
2019-01-29T03:24:35.341Z,27.90
2019-01-29T03:27:02.431Z,28.00
2019-01-29T03:29:29.512Z,28.00
2019-01-29T03:31:56.612Z,28.00
2019-01-29T03:34:23.730Z,27.90
2019-01-29T03:36:50.793Z,27.90
2019-01-29T03:39:17.885Z,27.90
2019-01-29T03:41:45.079Z,27.90
2019-01-29T03:44:12.327Z,28.40
2019-01-29T03:46:39.380Z,27.90
2019-01-29T03:49:06.487Z,27.90
2019-01-29T03:51:33.679Z,27.90
2019-01-29T03:54:00.730Z,28.00
2019-01-29T03:56:27.978Z,27.90
2019-01-29T03:58:55.046Z,27.90
2019-01-29T04:01:22.136Z,28.40
2019-01-29T04:03:49.298Z,27.90
2019-01-29T04:06:16.593Z,27.90
2019-01-29T04:08:43.717Z,27.90
2019-01-29T04:11:10.807Z,27.90
2019-01-29T04:13:37.877Z,27.90
2019-01-29T04:16:04.970Z,27.90
2019-01-29T04:18:32.042Z,27.90
2019-01-29T04:20:59.128Z,27.90
2019-01-29T04:23:26.223Z,27.90
2019-01-29T04:25:53.278Z,28.00
2019-01-29T04:28:20.425Z,27.90
2019-01-29T04:30:47.473Z,27.90
2019-01-29T04:33:14.567Z,27.90
2019-01-29T04:35:41.625Z,27.90
2019-01-29T04:38:08.820Z,28.00
2019-01-29T04:40:35.886Z,27.90
2019-01-29T04:43:02.972Z,27.90
2019-01-29T04:45:30.164Z,27.90
2019-01-29T04:47:57.262Z,27.90
2019-01-29T04:50:24.443Z,27.90
2019-01-29T04:52:51.504Z,28.00
2019-01-29T04:55:18.761Z,27.90
2019-01-29T04:57:45.958Z,27.90
2019-01-29T05:00:13.037Z,27.90
2019-01-29T05:02:40.098Z,27.90
2019-01-29T05:05:07.356Z,27.90
2019-01-29T05:07:34.454Z,27.90
2019-01-29T05:10:01.531Z,27.90
2019-01-29T05:12:28.597Z,27.90
2019-01-29T05:14:55.659Z,27.80
2019-01-29T05:17:22.753Z,27.80
2019-01-29T05:19:49.846Z,27.80
2019-01-29T05:22:16.898Z,27.80
2019-01-29T05:24:44.152Z,27.80
2019-01-29T05:27:11.253Z,27.80
2019-01-29T05:29:38.310Z,27.80
2019-01-29T05:32:05.368Z,27.90
2019-01-29T05:34:32.436Z,27.80
2019-01-29T05:36:59.594Z,27.80
2019-01-29T05:39:26.646Z,27.90
2019-01-29T05:41:53.746Z,27.90
2019-01-29T05:44:20.914Z,27.90
2019-01-29T05:46:48.048Z,27.90
2019-01-29T05:49:15.240Z,27.90
2019-01-29T05:51:42.396Z,27.90
2019-01-29T05:54:15.910Z,27.90
2019-01-29T05:56:38.317Z,27.80
2019-01-29T05:59:05.396Z,27.90
2019-01-29T06:01:32.452Z,27.90
2019-01-29T06:03:59.549Z,27.90
2019-01-29T06:06:26.611Z,27.90
2019-01-29T06:08:53.666Z,27.90
2019-01-29T06:11:21.110Z,27.90
2019-01-29T06:13:48.171Z,27.90
2019-01-29T06:16:15.442Z,27.90
2019-01-29T06:18:42.598Z,27.90
2019-01-29T06:21:09.695Z,27.90
2019-01-29T06:23:36.901Z,27.90
2019-01-29T06:26:04.052Z,27.90
2019-01-29T06:28:31.103Z,27.90
2019-01-29T06:30:58.165Z,27.90
2019-01-29T06:33:25.262Z,27.90
2019-01-29T06:35:52.323Z,27.90
2019-01-29T06:38:19.450Z,27.80
2019-01-29T06:40:46.640Z,27.90
2019-01-29T06:43:13.707Z,27.80
2019-01-29T06:45:40.927Z,27.80
2019-01-29T06:48:08.014Z,27.80
2019-01-29T06:50:35.076Z,27.80
2019-01-29T06:53:02.134Z,27.80
2019-01-29T06:55:29.323Z,28.30
2019-01-29T06:57:56.433Z,27.80
2019-01-29T07:00:23.479Z,27.80
2019-01-29T07:02:50.705Z,27.90
2019-01-29T07:05:17.920Z,27.80
2019-01-29T07:07:44.979Z,27.80
2019-01-29T07:10:12.079Z,27.80
2019-01-29T07:12:39.285Z,27.80
2019-01-29T07:15:06.379Z,27.80
2019-01-29T07:17:33.463Z,27.80
2019-01-29T07:20:00.536Z,27.80
2019-01-29T07:22:27.594Z,27.80
2019-01-29T07:24:54.777Z,27.80
2019-01-29T07:27:22.075Z,27.70
2019-01-29T07:29:49.172Z,27.80
2019-01-29T07:32:16.684Z,27.80
2019-01-29T07:34:43.925Z,27.80
2019-01-29T07:37:10.982Z,27.80
2019-01-29T07:39:38.070Z,27.80
2019-01-29T07:42:05.256Z,27.70
2019-01-29T07:44:32.524Z,27.80
2019-01-29T07:46:59.586Z,27.70
2019-01-29T07:49:26.689Z,27.70
2019-01-29T07:51:53.745Z,27.70
2019-01-29T07:54:21.127Z,27.70
2019-01-29T07:56:48.189Z,27.70
2019-01-29T07:59:15.280Z,27.70
2019-01-29T08:01:42.481Z,27.70
2019-01-29T08:04:09.647Z,27.80
2019-01-29T08:06:36.770Z,27.70
2019-01-29T08:09:04.132Z,27.70
2019-01-29T08:11:31.294Z,27.70
2019-01-29T08:13:58.532Z,27.70
2019-01-29T08:16:25.586Z,27.70
2019-01-29T08:18:52.747Z,27.70
2019-01-29T08:21:20.255Z,27.70
2019-01-29T08:23:47.587Z,28.20
2019-01-29T08:26:14.673Z,27.70
2019-01-29T08:28:41.757Z,27.70
2019-01-29T08:31:08.853Z,27.70
2019-01-29T08:33:35.976Z,27.70
2019-01-29T08:36:03.093Z,27.70
2019-01-29T08:38:30.185Z,27.70
2019-01-29T08:40:57.244Z,27.60
2019-01-29T08:43:24.352Z,27.60
2019-01-29T08:45:51.414Z,27.70
2019-01-29T08:48:18.475Z,27.70
2019-01-29T08:50:45.681Z,27.70
2019-01-29T08:53:12.754Z,27.70
2019-01-29T08:55:39.986Z,27.70
2019-01-29T08:58:07.109Z,27.60
2019-01-29T09:00:34.229Z,27.60
2019-01-29T09:03:01.539Z,27.60
2019-01-29T09:05:28.588Z,27.70
2019-01-29T09:07:55.722Z,27.70
2019-01-29T09:10:24.318Z,27.70
2019-01-29T09:12:51.421Z,27.60
2019-01-29T09:15:19.527Z,27.70
2019-01-29T09:17:46.795Z,27.70
2019-01-29T09:20:13.880Z,27.70
2019-01-29T09:22:40.952Z,27.60
2019-01-29T09:25:08.237Z,27.70
2019-01-29T09:27:35.339Z,27.70
2019-01-29T09:30:02.394Z,27.80
2019-01-29T09:32:29.470Z,27.70
2019-01-29T09:34:56.535Z,27.80
2019-01-29T09:37:23.693Z,27.80
2019-01-29T09:39:50.793Z,27.80
2019-01-29T09:42:17.844Z,27.80
2019-01-29T09:44:45.031Z,27.90
2019-01-29T09:47:12.286Z,27.80
2019-01-29T09:49:39.373Z,27.80
2019-01-29T09:52:06.462Z,28.00
2019-01-29T09:54:33.516Z,27.90
2019-01-29T09:57:00.683Z,27.90
2019-01-29T09:59:27.784Z,27.90
2019-01-29T10:01:54.842Z,27.90
2019-01-29T10:04:21.933Z,27.90
2019-01-29T10:06:49.026Z,27.90
2019-01-29T10:09:16.166Z,27.90
2019-01-29T10:11:43.267Z,27.90
2019-01-29T10:14:10.458Z,27.90
2019-01-29T10:16:37.514Z,27.90
2019-01-29T10:19:04.616Z,27.90
2019-01-29T10:21:31.684Z,27.50
2019-01-29T10:23:58.810Z,27.90
2019-01-29T10:26:25.905Z,27.90
2019-01-29T10:28:52.957Z,27.90
2019-01-29T10:31:20.037Z,27.90
2019-01-29T10:33:47.142Z,27.90
2019-01-29T10:36:14.188Z,27.90
2019-01-29T10:38:41.278Z,27.90
2019-01-29T10:41:08.399Z,27.90
2019-01-29T10:43:35.498Z,27.90
2019-01-29T10:46:02.632Z,27.80
2019-01-29T10:48:29.777Z,27.80
2019-01-29T10:50:56.843Z,27.90
2019-01-29T10:53:23.942Z,27.90
2019-01-29T10:55:51.061Z,27.90
2019-01-29T10:58:18.167Z,27.90
2019-01-29T11:00:45.258Z,27.90
2019-01-29T11:03:12.340Z,27.90
2019-01-29T11:05:42.927Z,27.90
2019-01-29T11:08:10.030Z,27.90
2019-01-29T11:10:37.142Z,27.90
2019-01-29T11:13:04.284Z,28.00
2019-01-29T11:15:32.151Z,27.90
2019-01-29T11:17:59.593Z,27.90
2019-01-29T11:20:26.717Z,27.80
2019-01-29T11:22:53.946Z,27.80
2019-01-29T11:25:21.292Z,27.80
2019-01-29T11:27:48.411Z,27.50
2019-01-29T11:30:15.662Z,27.80
2019-01-29T11:32:42.720Z,27.80
2019-01-29T11:35:09.960Z,27.80
2019-01-29T11:37:37.069Z,28.00
2019-01-29T11:40:04.161Z,27.90
2019-01-29T11:42:31.305Z,27.80
2019-01-29T11:44:58.368Z,27.70
2019-01-29T11:47:25.659Z,27.70
2019-01-29T11:49:52.739Z,27.70
2019-01-29T11:52:19.804Z,27.80
2019-01-29T11:54:46.958Z,27.70
2019-01-29T11:57:14.013Z,27.70
2019-01-29T11:59:41.174Z,27.70
2019-01-29T12:02:08.227Z,27.70
2019-01-29T12:04:35.339Z,27.70
2019-01-29T12:07:02.415Z,27.70
2019-01-29T12:09:29.523Z,27.70
2019-01-29T12:11:56.678Z,27.70
2019-01-29T12:14:23.970Z,27.70
2019-01-29T12:16:51.209Z,27.80
2019-01-29T12:19:18.278Z,27.80
2019-01-29T12:21:45.380Z,27.80
2019-01-29T12:24:12.444Z,27.90
2019-01-29T12:26:39.506Z,27.90
2019-01-29T12:29:06.708Z,28.00
2019-01-29T12:31:33.771Z,28.00
2019-01-29T12:34:00.836Z,28.30
2019-01-29T12:36:28.002Z,28.30
2019-01-29T12:38:55.081Z,28.20
2019-01-29T12:41:22.194Z,28.30
2019-01-29T12:43:49.243Z,28.60
2019-01-29T12:46:16.304Z,28.70
2019-01-29T12:48:43.444Z,28.90
2019-01-29T12:51:10.517Z,28.90
2019-01-29T12:53:37.615Z,28.90
2019-01-29T12:56:04.678Z,29.00
2019-01-29T12:58:31.848Z,29.30
2019-01-29T13:00:58.901Z,29.30
2019-01-29T13:03:26.106Z,29.30
2019-01-29T13:05:53.175Z,29.30
2019-01-29T13:08:20.445Z,29.30
2019-01-29T13:10:47.539Z,29.30
2019-01-29T13:13:14.597Z,29.20
2019-01-29T13:15:41.783Z,29.20
2019-01-29T13:18:08.850Z,29.10
2019-01-29T13:20:35.953Z,28.90
2019-01-29T13:23:04.524Z,28.90
2019-01-29T13:25:31.649Z,28.80
2019-01-29T13:27:58.866Z,28.70
2019-01-29T13:30:25.931Z,28.80
2019-01-29T13:32:53.092Z,28.70
2019-01-29T13:35:20.224Z,28.60
2019-01-29T13:37:47.498Z,28.60
2019-01-29T13:40:14.550Z,28.60
2019-01-29T13:42:41.647Z,28.40
2019-01-29T13:45:08.820Z,28.50
2019-01-29T13:47:35.925Z,28.40
2019-01-29T13:50:03.128Z,28.40
2019-01-29T13:52:30.189Z,28.90
2019-01-29T13:54:57.408Z,28.30
2019-01-29T13:57:24.462Z,28.40
2019-01-29T13:59:52.541Z,28.50
2019-01-29T14:02:20.002Z,28.40
2019-01-29T14:04:47.253Z,28.40
2019-01-29T14:07:14.351Z,28.30
2019-01-29T14:09:41.409Z,28.30
2019-01-29T14:12:08.500Z,28.40
2019-01-29T14:14:35.639Z,28.30
2019-01-29T14:17:05.266Z,28.30
2019-01-29T14:19:32.397Z,28.20
2019-01-29T14:21:59.527Z,28.10
2019-01-29T14:24:26.700Z,28.10
2019-01-29T14:26:53.749Z,28.10
2019-01-29T14:29:21.756Z,28.10
2019-01-29T14:31:48.828Z,28.00
2019-01-29T14:34:15.943Z,28.00
2019-01-29T14:36:43.026Z,28.00
2019-01-29T14:39:10.178Z,28.00
2019-01-29T14:41:37.278Z,28.00
2019-01-29T14:44:04.408Z,28.00
2019-01-29T14:46:31.517Z,28.10
2019-01-29T14:48:58.644Z,28.10
2019-01-29T14:51:25.736Z,28.00
2019-01-29T14:53:52.802Z,27.60
2019-01-29T14:56:20.157Z,28.00
2019-01-29T14:58:47.227Z,27.90
2019-01-29T15:01:14.284Z,27.90
2019-01-29T15:03:41.379Z,27.90
2019-01-29T15:06:08.546Z,27.80
2019-01-29T15:08:35.686Z,27.90
2019-01-29T15:11:02.827Z,28.00
2019-01-29T15:13:29.966Z,28.00
2019-01-29T15:15:57.149Z,28.00
2019-01-29T15:18:24.405Z,28.10
2019-01-29T15:20:51.495Z,28.10
2019-01-29T15:23:18.577Z,28.10
2019-01-29T15:25:45.844Z,28.00
2019-01-29T15:28:12.995Z,28.10
2019-01-29T15:30:40.229Z,28.10
2019-01-29T15:33:07.289Z,28.10
2019-01-29T15:35:34.361Z,28.20
2019-01-29T15:38:01.624Z,28.40
2019-01-29T15:40:28.722Z,28.40
2019-01-29T15:42:56.205Z,28.30
2019-01-29T15:45:23.577Z,28.30
2019-01-29T15:47:50.689Z,28.10
2019-01-29T15:50:18.189Z,28.10
2019-01-29T15:52:48.646Z,28.10
2019-01-29T15:55:14.626Z,28.10
2019-01-29T15:57:41.746Z,28.00
2019-01-29T16:00:08.986Z,28.00
2019-01-29T16:02:36.047Z,28.00
2019-01-29T16:05:03.225Z,28.00
2019-01-29T16:07:30.285Z,28.00
2019-01-29T16:09:57.375Z,28.00
2019-01-29T16:12:24.458Z,28.00
2019-01-29T16:14:51.633Z,28.60
2019-01-29T16:17:19.072Z,28.00
2019-01-29T16:19:46.241Z,28.00
2019-01-29T16:22:13.351Z,28.00
2019-01-29T16:24:40.423Z,28.00
2019-01-29T16:27:07.505Z,27.90
2019-01-29T16:29:34.573Z,27.90
2019-01-29T16:32:01.761Z,27.90
2019-01-29T16:34:28.832Z,28.00
2019-01-29T16:36:58.358Z,27.90
2019-01-29T16:39:25.586Z,28.10
2019-01-29T16:41:52.646Z,28.20
2019-01-29T16:44:19.704Z,28.30
2019-01-29T16:46:46.942Z,28.50
2019-01-29T16:49:14.021Z,28.60
2019-01-29T16:51:42.625Z,28.80
2019-01-29T16:54:10.143Z,29.00
2019-01-29T16:56:37.231Z,28.90
2019-01-29T16:59:04.407Z,29.00
2019-01-29T17:01:31.508Z,29.00
2019-01-29T17:03:58.564Z,28.90
2019-01-29T17:06:25.643Z,28.80
2019-01-29T17:08:52.813Z,28.80
2019-01-29T17:11:19.895Z,28.80
2019-01-29T17:13:46.955Z,28.80
2019-01-29T17:16:14.171Z,28.90
2019-01-29T17:18:41.256Z,28.90
2019-01-29T17:21:08.382Z,28.80
2019-01-29T17:23:36.924Z,28.80
2019-01-29T17:26:04.046Z,28.80
2019-01-29T17:28:31.107Z,29.20
2019-01-29T17:30:58.219Z,29.10
2019-01-29T17:33:25.278Z,29.10
2019-01-29T17:35:52.351Z,29.00
2019-01-29T17:38:19.647Z,29.20
2019-01-29T17:40:46.742Z,29.40
2019-01-29T17:43:13.810Z,29.40
2019-01-29T17:45:41.038Z,29.40
2019-01-29T17:48:08.143Z,29.60
2019-01-29T17:50:35.263Z,29.70
2019-01-29T17:53:02.415Z,29.60
2019-01-29T17:55:29.474Z,29.40
2019-01-29T17:57:56.657Z,29.40
2019-01-29T18:00:23.754Z,29.40
2019-01-29T18:02:50.857Z,29.40
2019-01-29T18:05:17.940Z,29.20
2019-01-29T18:07:45.050Z,29.40
2019-01-29T18:10:12.155Z,29.40
2019-01-29T18:12:39.370Z,29.40
2019-01-29T18:15:06.416Z,29.40
2019-01-29T18:17:33.713Z,29.40
2019-01-29T18:20:00.790Z,29.30
2019-01-29T18:22:27.895Z,29.40
2019-01-29T18:24:54.960Z,29.40
2019-01-29T18:27:22.034Z,27.00
2019-01-29T18:29:49.096Z,27.60
2019-01-29T18:32:16.269Z,28.10
2019-01-29T18:34:43.337Z,28.30
2019-01-29T18:37:10.649Z,28.50
2019-01-29T18:39:37.711Z,28.60
2019-01-29T18:42:04.803Z,28.70
2019-01-29T18:44:31.880Z,28.70
2019-01-29T18:46:59.021Z,28.80
2019-01-29T18:49:26.071Z,28.70
2019-01-29T18:51:53.158Z,28.80
2019-01-29T18:54:20.218Z,28.80
2019-01-29T18:56:47.431Z,28.80
2019-01-29T18:59:14.499Z,28.80
2019-01-29T19:01:41.583Z,28.80
2019-01-29T19:04:08.763Z,28.70
2019-01-29T19:06:35.865Z,28.80
2019-01-29T19:09:03.013Z,28.80
2019-01-29T19:11:30.075Z,28.80
2019-01-29T19:13:57.373Z,28.80
2019-01-29T19:16:24.431Z,28.80
2019-01-29T19:18:51.518Z,28.80
2019-01-29T19:21:18.609Z,29.20
2019-01-29T19:23:45.725Z,28.80
2019-01-29T19:26:12.777Z,28.70
2019-01-29T19:28:39.853Z,28.70
2019-01-29T19:31:06.969Z,28.60
2019-01-29T19:33:34.104Z,28.80
2019-01-29T19:36:01.185Z,28.80
2019-01-29T19:38:28.280Z,28.80
2019-01-29T19:40:55.445Z,28.80
2019-01-29T19:43:22.561Z,28.90
2019-01-29T19:45:50.907Z,28.80
2019-01-29T19:48:18.179Z,28.90
2019-01-29T19:50:45.229Z,29.40
2019-01-29T19:53:12.433Z,29.30
2019-01-29T19:55:39.511Z,28.80
2019-01-29T19:58:09.241Z,29.00
2019-01-29T20:00:35.495Z,28.90
2019-01-29T20:03:02.619Z,28.80
2019-01-29T20:05:29.667Z,28.80
2019-01-29T20:07:56.935Z,28.70
2019-01-29T20:10:24.022Z,28.70
2019-01-29T20:12:51.189Z,28.70
2019-01-29T20:15:18.473Z,29.20
2019-01-29T20:17:45.794Z,28.70
2019-01-29T20:20:12.857Z,28.60
2019-01-29T20:22:39.904Z,28.60
2019-01-29T20:25:07.075Z,28.50
2019-01-29T20:27:34.172Z,28.60
2019-01-29T20:30:01.228Z,28.50
2019-01-29T20:35:20.186Z,28.40
2019-01-29T20:37:47.269Z,28.40
2019-01-29T20:40:14.395Z,28.40
2019-01-29T20:42:41.502Z,28.30
2019-01-29T20:45:08.643Z,28.30
2019-01-29T20:47:35.703Z,28.40
2019-01-29T20:50:02.767Z,28.30
2019-01-29T20:52:29.993Z,28.30
2019-01-29T20:54:57.050Z,28.30
2019-01-29T20:57:24.293Z,28.30
2019-01-29T20:59:51.358Z,28.20
2019-01-29T21:02:18.564Z,28.20
2019-01-29T21:04:45.844Z,28.20
2019-01-29T21:07:12.902Z,28.10
2019-01-29T21:09:40.002Z,28.20
2019-01-29T21:12:07.087Z,28.20
2019-01-29T21:14:34.201Z,28.20
2019-01-29T21:17:01.494Z,28.10
2019-01-29T21:19:28.563Z,28.10
2019-01-29T21:21:55.660Z,28.10
2019-01-29T21:24:22.837Z,28.10
2019-01-29T21:26:50.329Z,28.10
2019-01-29T21:29:17.398Z,28.10
2019-01-29T21:31:44.486Z,28.10
2019-01-29T21:34:11.643Z,28.10
2019-01-29T21:36:38.712Z,28.10
2019-01-29T21:39:05.824Z,28.00
2019-01-29T21:41:32.907Z,28.10
2019-01-29T21:44:00.047Z,28.00
2019-01-29T21:46:27.220Z,28.00
2019-01-29T21:48:54.349Z,28.00
2019-01-29T21:51:21.411Z,28.00
2019-01-29T21:53:48.501Z,27.90
2019-01-29T21:56:15.636Z,28.00
2019-01-29T21:58:43.005Z,27.90
2019-01-29T22:01:10.159Z,27.90
2019-01-29T22:03:37.304Z,27.90
2019-01-29T22:06:06.088Z,27.90
2019-01-29T22:08:33.265Z,27.80
2019-01-29T22:11:00.485Z,27.80
2019-01-29T22:13:27.563Z,27.80
2019-01-29T22:15:54.625Z,28.40
2019-01-29T22:18:21.780Z,27.80
2019-01-29T22:20:49.154Z,27.80
2019-01-29T22:23:16.356Z,27.80
2019-01-29T22:25:43.599Z,27.70
2019-01-29T22:28:10.656Z,27.80
2019-01-29T22:30:37.853Z,27.80
2019-01-29T22:33:05.156Z,27.70
2019-01-29T22:35:32.427Z,27.70
2019-01-29T22:37:59.518Z,27.60
2019-01-29T22:40:26.591Z,27.70
2019-01-29T22:42:53.783Z,27.60
2019-01-29T22:45:21.285Z,27.60
2019-01-29T22:47:48.857Z,27.60
2019-01-29T22:50:16.218Z,27.60
2019-01-29T22:52:43.618Z,27.60
2019-01-29T22:55:10.776Z,27.60
2019-01-29T22:57:38.098Z,27.60
2019-01-29T23:00:05.263Z,27.60
2019-01-29T23:02:32.363Z,27.50
2019-01-29T23:04:59.447Z,27.50
2019-01-29T23:07:26.641Z,27.50
2019-01-29T23:09:53.818Z,27.50
2019-01-29T23:12:20.886Z,27.50
2019-01-29T23:14:48.174Z,27.50
2019-01-29T23:17:15.257Z,27.40
2019-01-29T23:19:42.317Z,27.50
2019-01-29T23:22:09.417Z,27.40
2019-01-29T23:24:36.546Z,27.40
2019-01-29T23:27:03.824Z,27.40
2019-01-29T23:29:30.887Z,27.40
2019-01-29T23:31:58.066Z,27.40
2019-01-29T23:34:25.180Z,27.40
2019-01-29T23:36:52.270Z,27.40
2019-01-29T23:39:19.362Z,27.40
2019-01-29T23:41:46.422Z,27.40
2019-01-29T23:44:13.773Z,27.40
2019-01-29T23:46:40.858Z,27.30
2019-01-29T23:49:07.926Z,27.30
2019-01-29T23:51:35.008Z,27.30
2019-01-29T23:54:02.064Z,27.80
2019-01-29T23:56:29.250Z,27.30
2019-01-29T23:58:58.429Z,27.30
